Time;durP1;ratioP1;P1;durP2;ratioP2;P2;SDS_P1;SDS_P2;PMS_P1;PMS_P2;Temp;Humidity;BMP_temperature;BMP_pressure;BME280_temperature;BME280_humidity;BME280_pressure;Samples;Min_cycle;Max_cycle;Signal;HPM_P1;HPM_P2
2022/03/28 00:00:36;;;;;;;27.52;12.85;;;10.10;99.90;;;;;;6307300;22;20076;-75
2022/03/28 00:03:02;;;;;;;21.73;12.48;;;10.00;99.90;;;;;;6279489;22;20007;-75
2022/03/28 00:05:30;;;;;;;29.58;13.60;;;10.00;99.90;;;;;;6306247;22;20128;-75
2022/03/28 00:07:56;;;;;;;27.75;13.65;;;10.00;99.90;;;;;;6306225;22;20009;-75
2022/03/28 00:10:21;;;;;;;27.50;13.80;;;10.00;99.90;;;;;;6307115;22;20070;-75
2022/03/28 00:12:47;;;;;;;30.45;13.32;;;10.00;99.90;;;;;;6307216;22;20397;-75
2022/03/28 00:15:13;;;;;;;29.48;14.13;;;10.00;99.90;;;;;;6306266;22;20120;-75
2022/03/28 00:17:39;;;;;;;28.40;15.10;;;9.90;99.90;;;;;;6277989;22;20041;-74
2022/03/28 00:20:09;;;;;;;27.63;14.18;;;9.80;99.90;;;;;;6306624;22;20000;-75
2022/03/28 00:22:35;;;;;;;29.35;14.88;;;9.80;99.90;;;;;;6304798;22;20007;-74
2022/03/28 00:25:01;;;;;;;31.38;15.02;;;9.80;99.90;;;;;;6306148;22;20333;-74
2022/03/28 00:27:27;;;;;;;28.65;14.63;;;9.80;99.90;;;;;;6306573;22;20004;-74
2022/03/28 00:29:53;;;;;;;28.40;14.30;;;9.80;99.90;;;;;;6306675;22;19999;-74
2022/03/28 00:32:19;;;;;;;25.77;14.63;;;9.80;99.90;;;;;;6305024;22;20006;-74
2022/03/28 00:34:45;;;;;;;34.03;15.10;;;9.80;99.90;;;;;;6306731;22;20317;-74
2022/03/28 00:37:11;;;;;;;26.38;13.27;;;9.70;99.90;;;;;;6306363;22;19999;-75
2022/03/28 00:39:37;;;;;;;34.05;15.30;;;9.80;99.90;;;;;;6306183;22;20130;-75
2022/03/28 00:42:03;;;;;;;32.42;14.80;;;9.70;99.90;;;;;;6306421;22;20365;-76
2022/03/28 00:44:32;;;;;;;28.30;14.18;;;9.70;99.90;;;;;;6306156;22;20079;-75
2022/03/28 00:46:59;;;;;;;25.25;13.98;;;9.60;99.90;;;;;;6307832;22;20003;-75
2022/03/28 00:49:25;;;;;;;26.27;14.75;;;9.60;99.90;;;;;;6281610;22;20006;-75
2022/03/28 00:51:52;;;;;;;31.50;14.82;;;9.40;99.90;;;;;;6308508;22;20003;-75
2022/03/28 00:54:19;;;;;;;30.25;14.55;;;9.40;99.90;;;;;;6307244;22;19999;-75
2022/03/28 00:56:47;;;;;;;32.47;16.10;;;9.40;99.90;;;;;;6308475;22;20019;-75
2022/03/28 00:59:13;;;;;;;30.33;16.15;;;9.40;99.90;;;;;;6309120;22;20003;-74
2022/03/28 01:01:39;;;;;;;27.48;13.98;;;9.50;99.90;;;;;;6307263;22;20010;-74
2022/03/28 01:04:08;;;;;;;27.92;13.50;;;9.50;99.90;;;;;;6308921;22;19999;-74
2022/03/28 01:06:36;;;;;;;27.38;13.68;;;9.40;99.90;;;;;;6308661;22;20057;-74
2022/03/28 01:09:03;;;;;;;30.75;15.27;;;9.40;99.90;;;;;;6308390;22;20007;-74
2022/03/28 01:11:32;;;;;;;25.90;13.18;;;9.40;99.90;;;;;;6307190;22;19999;-74
2022/03/28 01:13:59;;;;;;;24.95;14.05;;;9.40;99.90;;;;;;6281451;22;20365;-74
2022/03/28 01:16:29;;;;;;;29.83;14.38;;;9.30;99.90;;;;;;6279889;22;20011;-74
2022/03/28 01:18:54;;;;;;;27.55;13.20;;;9.20;99.90;;;;;;6308545;22;19995;-74
2022/03/28 01:21:20;;;;;;;30.45;15.77;;;9.20;99.90;;;;;;6308825;22;20010;-74
2022/03/28 01:23:46;;;;;;;33.38;15.23;;;9.20;99.90;;;;;;6281249;22;20003;-74
2022/03/28 01:26:14;;;;;;;25.17;13.35;;;9.00;99.90;;;;;;6308661;22;19999;-74
2022/03/28 01:28:40;;;;;;;28.35;13.55;;;9.00;99.90;;;;;;6307797;22;20007;-74
2022/03/28 01:31:07;;;;;;;28.15;13.90;;;9.10;99.90;;;;;;6307967;22;20000;-74
2022/03/28 01:33:35;;;;;;;30.35;14.13;;;9.10;99.90;;;;;;6307409;22;20421;-74
2022/03/28 01:36:00;;;;;;;28.38;13.77;;;9.10;99.90;;;;;;6307114;22;20003;-74
2022/03/28 01:38:26;;;;;;;27.15;14.38;;;9.10;99.90;;;;;;6308163;22;20424;-74
2022/03/28 01:40:53;;;;;;;31.75;14.57;;;9.00;99.90;;;;;;6306929;22;20087;-74
2022/03/28 01:43:20;;;;;;;28.20;14.52;;;9.00;99.90;;;;;;6308316;22;20436;-74
2022/03/28 01:45:46;;;;;;;32.47;15.30;;;9.00;99.90;;;;;;6306965;22;20007;-74
2022/03/28 01:48:13;;;;;;;23.92;13.32;;;9.00;99.90;;;;;;6308022;22;20053;-74
2022/03/28 01:50:39;;;;;;;25.52;12.35;;;8.80;99.90;;;;;;6307549;22;20007;-74
2022/03/28 01:53:07;;;;;;;26.13;12.93;;;8.80;99.90;;;;;;6307058;22;20004;-74
2022/03/28 01:55:33;;;;;;;28.40;13.13;;;8.80;99.90;;;;;;6308221;22;20000;-74
2022/03/28 01:57:58;;;;;;;27.80;12.30;;;8.70;99.90;;;;;;6306821;22;20444;-74
2022/03/28 02:00:26;;;;;;;23.50;12.63;;;8.80;99.90;;;;;;6307959;22;20006;-74
2022/03/28 02:02:52;;;;;;;26.30;12.07;;;8.80;99.90;;;;;;6279250;22;20348;-74
2022/03/28 02:05:18;;;;;;;25.85;12.30;;;8.60;99.90;;;;;;6280407;22;19999;-74
2022/03/28 02:07:47;;;;;;;23.60;12.45;;;8.60;99.90;;;;;;6307920;22;20472;-74
2022/03/28 02:10:15;;;;;;;22.75;13.13;;;8.60;99.90;;;;;;6308432;22;20003;-74
2022/03/28 02:12:41;;;;;;;31.52;12.98;;;8.70;99.90;;;;;;6306587;22;20003;-76
2022/03/28 02:15:07;;;;;;;25.95;13.40;;;8.70;99.90;;;;;;6307959;22;20007;-76
2022/03/28 02:17:34;;;;;;;25.70;13.55;;;8.60;99.90;;;;;;6279688;22;20053;-75
2022/03/28 02:20:02;;;;;;;25.67;13.35;;;8.60;99.90;;;;;;6307679;22;20052;-75
2022/03/28 02:22:27;;;;;;;34.83;14.45;;;8.60;99.90;;;;;;6307844;22;20053;-75
2022/03/28 02:24:53;;;;;;;28.75;13.52;;;8.60;99.90;;;;;;6308490;22;20004;-75
2022/03/28 02:27:19;;;;;;;28.13;12.98;;;8.60;99.90;;;;;;6306645;22;20007;-75
2022/03/28 02:29:44;;;;;;;31.63;14.77;;;8.60;99.90;;;;;;6307847;22;20003;-75
2022/03/28 02:32:12;;;;;;;30.05;14.10;;;8.50;99.90;;;;;;6307163;22;20082;-76
2022/03/28 02:34:38;;;;;;;26.05;14.48;;;8.50;99.90;;;;;;6306856;22;20018;-75
2022/03/28 02:37:04;;;;;;;31.88;14.50;;;8.50;99.90;;;;;;6307349;22;20386;-75
2022/03/28 02:39:30;;;;;;;26.25;13.13;;;8.50;99.90;;;;;;6307722;22;20405;-75
2022/03/28 02:41:55;;;;;;;28.13;13.50;;;8.40;99.90;;;;;;6279213;22;20018;-75
2022/03/28 02:44:21;;;;;;;27.70;14.63;;;8.40;99.90;;;;;;6307239;22;20008;-75
2022/03/28 02:46:49;;;;;;;26.35;13.00;;;8.40;99.90;;;;;;6280150;22;20006;-76
2022/03/28 02:49:15;;;;;;;28.60;13.20;;;8.40;99.90;;;;;;6306729;22;20007;-75
2022/03/28 02:51:43;;;;;;;30.77;12.48;;;8.30;99.90;;;;;;6279820;22;20336;-75
2022/03/28 02:54:11;;;;;;;26.38;13.93;;;8.30;99.90;;;;;;6278953;22;20003;-75
2022/03/28 02:56:37;;;;;;;25.70;13.60;;;8.30;99.90;;;;;;6307613;22;20002;-75
2022/03/28 02:59:03;;;;;;;27.73;14.40;;;8.20;99.90;;;;;;6279891;22;20003;-76
2022/03/28 03:01:29;;;;;;;27.85;14.30;;;8.30;99.90;;;;;;6306445;22;20007;-76
2022/03/28 03:03:54;;;;;;;30.08;14.20;;;8.30;99.90;;;;;;6305723;22;20010;-76
2022/03/28 03:06:22;;;;;;;31.40;14.70;;;8.20;99.90;;;;;;6306860;22;20000;-75
2022/03/28 03:08:48;;;;;;;31.73;14.80;;;8.20;99.90;;;;;;6306708;22;20004;-75
2022/03/28 03:11:14;;;;;;;26.67;14.05;;;8.10;99.90;;;;;;6307357;22;20052;-75
2022/03/28 03:13:39;;;;;;;30.83;14.40;;;8.10;99.90;;;;;;6280131;22;20007;-76
2022/03/28 03:16:05;;;;;;;27.33;13.45;;;8.00;99.90;;;;;;6306194;22;20068;-75
2022/03/28 03:18:31;;;;;;;31.50;13.68;;;8.10;99.90;;;;;;6280104;22;20000;-75
2022/03/28 03:20:58;;;;;;;28.35;15.63;;;7.90;99.90;;;;;;6307021;22;20302;-75
2022/03/28 03:23:24;;;;;;;31.67;15.18;;;7.90;99.90;;;;;;6305909;22;20006;-75
2022/03/28 03:25:50;;;;;;;29.30;15.25;;;8.00;99.90;;;;;;6307397;22;20003;-75
2022/03/28 03:28:16;;;;;;;28.60;13.50;;;8.00;99.90;;;;;;6305942;22;20006;-75
2022/03/28 03:30:43;;;;;;;33.13;15.23;;;8.00;99.90;;;;;;6307045;22;20055;-75
2022/03/28 03:33:08;;;;;;;28.77;14.50;;;8.00;99.90;;;;;;6278115;22;20010;-76
2022/03/28 03:35:35;;;;;;;30.90;14.88;;;7.90;99.90;;;;;;6306925;22;20405;-75
2022/03/28 03:38:01;;;;;;;26.00;12.70;;;7.80;99.90;;;;;;6306137;22;20084;-75
2022/03/28 03:40:26;;;;;;;33.78;14.63;;;7.80;99.90;;;;;;6306784;22;19999;-75
2022/03/28 03:42:52;;;;;;;30.77;15.82;;;7.80;99.90;;;;;;6279421;22;20059;-76
2022/03/28 03:45:18;;;;;;;32.13;15.20;;;7.70;99.90;;;;;;6306503;22;20030;-75
2022/03/28 03:47:43;;;;;;;32.10;14.98;;;7.70;99.90;;;;;;6307318;22;20010;-75
2022/03/28 03:50:10;;;;;;;31.67;15.60;;;7.80;99.90;;;;;;6305636;22;19999;-75
2022/03/28 03:52:36;;;;;;;27.95;14.57;;;7.80;99.90;;;;;;6306963;22;20014;-75
2022/03/28 03:55:02;;;;;;;29.63;15.57;;;7.70;99.90;;;;;;6278665;22;20003;-75
2022/03/28 03:57:28;;;;;;;33.25;16.38;;;7.80;99.90;;;;;;6307124;22;20000;-75
2022/03/28 03:59:53;;;;;;;26.73;14.68;;;7.70;99.90;;;;;;6305844;22;20375;-75
2022/03/28 04:02:19;;;;;;;32.80;15.95;;;7.70;99.90;;;;;;6306199;22;20082;-75
2022/03/28 04:04:45;;;;;;;31.17;14.60;;;7.70;99.90;;;;;;6305317;22;20010;-75
2022/03/28 04:07:10;;;;;;;28.67;13.32;;;7.70;99.90;;;;;;6305680;22;20011;-75
2022/03/28 04:09:36;;;;;;;28.50;14.27;;;7.60;99.90;;;;;;6307022;22;20333;-75
2022/03/28 04:12:02;;;;;;;34.22;14.27;;;7.60;99.90;;;;;;6306009;22;20010;-75
2022/03/28 04:14:29;;;;;;;29.17;14.15;;;7.60;99.90;;;;;;6307143;22;20078;-75
2022/03/28 04:16:55;;;;;;;31.58;16.25;;;7.50;99.90;;;;;;6305617;22;19999;-76
2022/03/28 04:19:21;;;;;;;30.45;14.52;;;7.50;99.90;;;;;;6306687;22;20057;-75
2022/03/28 04:21:48;;;;;;;30.02;14.50;;;7.50;99.90;;;;;;6307256;22;20004;-75
2022/03/28 04:24:14;;;;;;;30.48;13.52;;;7.50;99.90;;;;;;6309264;22;19995;-75
2022/03/28 04:26:39;;;;;;;31.50;13.52;;;7.50;99.90;;;;;;6308156;22;20328;-75
2022/03/28 04:29:05;;;;;;;27.20;13.43;;;7.50;99.90;;;;;;6309279;22;20023;-75
2022/03/28 04:31:30;;;;;;;29.88;13.88;;;7.50;99.90;;;;;;6309083;22;19995;-75
2022/03/28 04:33:57;;;;;;;27.75;14.43;;;7.50;99.90;;;;;;6308663;22;20359;-76
2022/03/28 04:36:23;;;;;;;31.40;14.85;;;7.50;99.90;;;;;;6308237;22;20064;-76
2022/03/28 04:38:49;;;;;;;28.10;13.88;;;7.40;99.90;;;;;;6308836;22;20010;-75
2022/03/28 04:41:15;;;;;;;31.67;14.50;;;7.40;99.90;;;;;;6280292;22;20004;-76
2022/03/28 04:43:41;;;;;;;26.30;13.88;;;7.40;99.90;;;;;;6308215;22;20436;-76
2022/03/28 04:46:06;;;;;;;28.17;14.18;;;7.40;99.90;;;;;;6281602;22;20034;-76
2022/03/28 04:48:32;;;;;;;29.65;14.40;;;7.40;99.90;;;;;;6308871;22;20459;-76
2022/03/28 04:50:57;;;;;;;26.02;13.85;;;7.40;99.90;;;;;;6309058;22;20098;-76
2022/03/28 04:53:23;;;;;;;28.05;14.60;;;7.30;99.90;;;;;;6308393;22;20011;-76
2022/03/28 04:55:49;;;;;;;34.53;15.98;;;7.30;99.90;;;;;;6307781;22;20072;-76
2022/03/28 04:58:16;;;;;;;31.67;15.52;;;7.30;99.90;;;;;;6308737;22;20063;-76
2022/03/28 05:00:42;;;;;;;36.53;14.77;;;7.30;99.90;;;;;;6307458;22;20037;-76
2022/03/28 05:03:08;;;;;;;33.05;15.20;;;7.30;99.90;;;;;;6308169;22;19999;-76
2022/03/28 05:05:34;;;;;;;32.58;15.07;;;7.20;99.90;;;;;;6279415;22;20006;-76
2022/03/28 05:08:00;;;;;;;32.53;14.98;;;7.20;99.90;;;;;;6281328;22;20013;-76
2022/03/28 05:10:26;;;;;;;28.70;15.18;;;7.20;99.90;;;;;;6307721;22;20416;-76
2022/03/28 05:12:52;;;;;;;28.42;14.52;;;7.20;99.90;;;;;;6308827;22;20013;-76
2022/03/28 05:15:17;;;;;;;30.00;14.65;;;7.20;99.90;;;;;;6308837;22;20082;-76
2022/03/28 05:17:43;;;;;;;33.67;14.60;;;7.10;99.90;;;;;;6306767;22;20006;-76
2022/03/28 05:20:10;;;;;;;34.17;14.02;;;7.00;99.90;;;;;;6281153;22;20435;-76
2022/03/28 05:22:36;;;;;;;34.92;15.40;;;7.10;99.90;;;;;;6307247;22;20007;-75
2022/03/28 05:25:02;;;;;;;30.92;14.70;;;7.00;99.90;;;;;;6281130;22;20046;-76
2022/03/28 05:27:28;;;;;;;34.80;14.50;;;7.00;99.90;;;;;;6307982;22;20041;-76
2022/03/28 05:29:54;;;;;;;30.60;14.35;;;7.00;99.90;;;;;;6280533;22;20007;-75
2022/03/28 05:32:19;;;;;;;36.80;15.25;;;7.00;99.90;;;;;;6308040;22;20324;-75
2022/03/28 05:34:45;;;;;;;38.40;15.82;;;7.00;99.90;;;;;;6307984;22;19999;-75
2022/03/28 05:37:13;;;;;;;32.58;15.32;;;7.00;99.90;;;;;;6307470;22;19999;-75
2022/03/28 05:39:40;;;;;;;29.25;14.30;;;7.00;99.90;;;;;;6308343;22;20046;-75
2022/03/28 05:42:07;;;;;;;28.85;13.40;;;7.00;99.90;;;;;;6307806;22;19999;-76
2022/03/28 05:44:34;;;;;;;30.52;14.20;;;7.00;99.90;;;;;;6308272;22;20034;-76
2022/03/28 05:46:59;;;;;;;32.20;15.55;;;6.90;99.90;;;;;;6306626;22;20011;-76
2022/03/28 05:49:25;;;;;;;31.13;14.35;;;6.90;99.90;;;;;;6280105;22;20302;-76
2022/03/28 05:51:52;;;;;;;32.97;15.20;;;6.90;99.90;;;;;;6280528;22;20003;-76
2022/03/28 05:54:19;;;;;;;32.50;15.20;;;6.90;99.90;;;;;;6308060;22;19999;-76
2022/03/28 05:56:48;;;;;;;33.85;15.63;;;7.00;99.90;;;;;;6308171;22;20023;-76
2022/03/28 05:59:14;;;;;;;39.50;14.75;;;7.00;99.90;;;;;;6307750;22;19995;-75
2022/03/28 06:01:40;;;;;;;32.35;15.38;;;6.90;99.90;;;;;;6308005;22;20082;-76
2022/03/28 06:04:06;;;;;;;28.10;14.50;;;6.90;99.90;;;;;;6306659;22;20034;-74
2022/03/28 06:06:32;;;;;;;31.92;15.60;;;7.00;99.90;;;;;;6307887;22;20034;-75
2022/03/28 06:08:59;;;;;;;37.05;14.13;;;7.00;99.90;;;;;;6306970;22;19999;-76
2022/03/28 06:11:25;;;;;;;33.05;13.90;;;7.00;99.90;;;;;;6308128;22;20006;-75
2022/03/28 06:13:51;;;;;;;30.40;15.18;;;6.90;99.90;;;;;;6280759;22;20011;-76
2022/03/28 06:16:16;;;;;;;32.95;17.10;;;6.90;99.90;;;;;;6307240;22;20002;-76
2022/03/28 06:18:42;;;;;;;30.83;14.20;;;7.00;99.90;;;;;;6308030;22;20057;-75
2022/03/28 06:21:08;;;;;;;33.35;14.10;;;7.00;99.90;;;;;;6307319;22;20322;-76
2022/03/28 06:23:35;;;;;;;35.47;14.10;;;7.00;99.90;;;;;;6307930;22;20454;-76
2022/03/28 06:26:02;;;;;;;33.17;14.90;;;7.00;99.90;;;;;;6307352;22;20542;-76
2022/03/28 06:28:28;;;;;;;31.80;14.23;;;7.10;99.90;;;;;;6280304;22;20136;-76
2022/03/28 06:30:53;;;;;;;35.33;15.80;;;7.20;99.90;;;;;;6307149;22;20039;-77
2022/03/28 06:33:19;;;;;;;35.78;15.90;;;7.20;99.90;;;;;;6307521;22;20102;-76
2022/03/28 06:35:46;;;;;;;29.88;14.90;;;7.30;99.90;;;;;;6307702;22;19995;-76
2022/03/28 06:38:12;;;;;;;24.92;14.10;;;7.20;99.90;;;;;;6306705;22;20002;-76
2022/03/28 06:40:37;;;;;;;33.38;16.33;;;7.20;99.90;;;;;;6308201;22;19999;-76
2022/03/28 06:43:04;;;;;;;37.47;17.38;;;7.20;99.90;;;;;;6278507;22;20519;-76
2022/03/28 06:45:30;;;;;;;31.02;16.08;;;7.30;99.90;;;;;;6307325;22;20052;-76
2022/03/28 06:47:56;;;;;;;30.52;16.35;;;7.30;99.90;;;;;;6306559;22;20082;-76
2022/03/28 06:50:24;;;;;;;39.85;18.55;;;7.30;99.90;;;;;;6280596;22;20035;-76
2022/03/28 06:52:51;;;;;;;34.95;16.85;;;7.40;99.90;;;;;;6306495;22;20009;-76
2022/03/28 06:55:18;;;;;;;38.22;18.48;;;7.50;99.90;;;;;;6279815;22;20004;-76
2022/03/28 06:57:44;;;;;;;35.08;16.83;;;7.60;99.90;;;;;;6306536;22;20053;-76
2022/03/28 07:00:11;;;;;;;40.10;19.05;;;7.70;99.90;;;;;;6279726;22;19999;-76
2022/03/28 07:02:37;;;;;;;31.15;17.10;;;7.80;99.90;;;;;;6303092;22;20045;-76
2022/03/28 07:05:05;;;;;;;37.47;17.38;;;7.80;99.90;;;;;;6277974;22;20007;-76
2022/03/28 07:07:50;;;;;;;43.05;18.30;;;7.90;99.90;;;;;;6306614;22;20029;-76
2022/03/28 07:10:20;;;;;;;36.88;18.35;;;8.00;99.90;;;;;;6279253;22;20003;-76
2022/03/28 07:12:46;;;;;;;40.25;18.60;;;8.10;99.90;;;;;;6279828;22;20316;-75
2022/03/28 07:15:14;;;;;;;43.67;20.08;;;8.20;99.90;;;;;;6307452;22;20026;-76
2022/03/28 07:17:52;;;;;;;39.42;18.92;;;8.20;99.90;;;;;;6305877;22;20003;-76
2022/03/28 07:20:19;;;;;;;47.90;20.98;;;8.20;99.90;;;;;;6307315;22;20350;-76
2022/03/28 07:22:45;;;;;;;45.92;21.83;;;8.20;99.90;;;;;;6279842;22;20082;-75
2022/03/28 07:25:10;;;;;;;50.38;23.85;;;8.40;99.90;;;;;;6306030;22;20050;-75
2022/03/28 07:27:40;;;;;;;49.13;22.50;;;8.50;99.90;;;;;;6306820;22;20324;-75
2022/03/28 07:30:07;;;;;;;49.58;22.60;;;8.70;99.90;;;;;;6306157;22;20013;-76
2022/03/28 07:32:34;;;;;;;48.28;22.02;;;8.60;99.90;;;;;;6306808;22;20011;-75
2022/03/28 07:35:00;;;;;;;43.95;23.35;;;8.70;99.90;;;;;;6307141;22;20006;-76
2022/03/28 07:37:26;;;;;;;44.42;24.13;;;8.80;99.90;;;;;;6307124;22;19999;-76
2022/03/28 07:39:52;;;;;;;53.60;24.83;;;8.90;99.90;;;;;;6306768;22;20034;-76
2022/03/28 07:42:18;;;;;;;65.82;25.63;;;8.90;99.90;;;;;;6278681;22;20003;-76
2022/03/28 07:44:44;;;;;;;54.45;23.45;;;9.10;99.90;;;;;;6305561;22;20018;-75
2022/03/28 07:47:10;;;;;;;48.47;23.67;;;9.20;99.90;;;;;;6306383;22;20052;-76
2022/03/28 07:49:37;;;;;;;53.15;25.08;;;9.30;99.90;;;;;;6277345;22;20354;-75
2022/03/28 07:52:04;;;;;;;50.97;25.30;;;9.40;99.90;;;;;;6306858;22;20060;-75
2022/03/28 07:54:32;;;;;;;45.70;23.30;;;9.50;99.90;;;;;;6305250;22;19999;-76
2022/03/28 07:56:58;;;;;;;52.92;23.73;;;9.60;99.90;;;;;;6279199;22;20006;-75
2022/03/28 07:59:24;;;;;;;55.08;25.98;;;9.70;99.90;;;;;;6279532;22;20003;-75
2022/03/28 08:01:51;;;;;;;58.08;26.40;;;9.80;99.90;;;;;;6305739;22;20003;-75
2022/03/28 08:04:17;;;;;;;57.85;27.10;;;10.00;99.90;;;;;;6306758;22;20320;-75
2022/03/28 08:06:43;;;;;;;56.25;26.42;;;10.10;99.90;;;;;;6306967;22;20014;-76
2022/03/28 08:09:09;;;;;;;60.63;26.92;;;10.30;99.90;;;;;;6305390;22;19996;-75
2022/03/28 08:11:35;;;;;;;51.80;28.40;;;10.40;99.90;;;;;;6279605;22;20003;-75
2022/03/28 08:14:03;;;;;;;53.95;29.83;;;10.50;99.90;;;;;;6305617;22;20007;-75
2022/03/28 08:16:29;;;;;;;61.47;28.40;;;10.70;99.90;;;;;;6279726;22;19995;-75
2022/03/28 08:18:55;;;;;;;57.88;27.52;;;10.90;99.90;;;;;;6304054;22;20023;-75
2022/03/28 08:21:21;;;;;;;47.45;24.65;;;11.10;99.90;;;;;;6306053;22;20298;-75
2022/03/28 08:23:47;;;;;;;53.42;25.88;;;11.30;99.90;;;;;;6306808;22;20007;-76
2022/03/28 08:26:13;;;;;;;48.67;25.35;;;11.40;99.90;;;;;;6304261;22;20050;-75
2022/03/28 08:28:39;;;;;;;51.75;27.55;;;11.50;99.90;;;;;;6279030;22;20463;-74
2022/03/28 08:31:05;;;;;;;50.20;25.95;;;11.60;99.90;;;;;;6306360;22;20030;-75
2022/03/28 08:33:31;;;;;;;50.55;29.23;;;11.70;99.90;;;;;;6304864;22;19999;-75
2022/03/28 08:35:57;;;;;;;52.03;30.75;;;11.80;99.90;;;;;;6306416;22;20003;-75
2022/03/28 08:38:23;;;;;;;55.10;30.77;;;12.00;99.90;;;;;;6304902;22;20420;-74
2022/03/28 08:40:49;;;;;;;60.45;28.50;;;12.00;99.90;;;;;;6305827;22;20002;-74
2022/03/28 08:43:22;;;;;;;58.10;29.98;;;12.10;99.90;;;;;;6304454;22;20011;-75
2022/03/28 08:45:51;;;;;;;48.17;27.90;;;12.20;99.90;;;;;;6305752;22;20007;-75
2022/03/28 08:48:18;;;;;;;56.70;26.35;;;12.40;99.90;;;;;;6306785;22;20027;-75
2022/03/28 08:50:46;;;;;;;55.67;27.50;;;12.50;99.90;;;;;;6304677;22;20035;-75
2022/03/28 08:53:13;;;;;;;60.45;29.98;;;12.50;99.90;;;;;;6278478;22;20429;-74
2022/03/28 08:55:40;;;;;;;51.45;29.98;;;12.70;99.90;;;;;;6305933;22;19999;-74
2022/03/28 08:58:06;;;;;;;57.88;30.02;;;12.80;99.90;;;;;;6304627;22;20003;-74
2022/03/28 09:00:32;;;;;;;50.22;27.58;;;13.00;99.90;;;;;;6305439;22;20068;-74
2022/03/28 09:02:58;;;;;;;52.60;28.90;;;13.00;99.90;;;;;;6306610;22;20010;-74
2022/03/28 09:05:47;;;;;;;48.40;26.80;;;13.20;99.90;;;;;;6277216;22;20011;-74
2022/03/28 09:08:13;;;;;;;49.72;25.48;;;13.30;99.90;;;;;;6305808;22;20436;-74
2022/03/28 09:10:44;;;;;;;52.08;27.30;;;13.50;99.90;;;;;;6278649;22;20003;-74
2022/03/28 09:13:12;;;;;;;57.90;28.10;;;13.60;99.90;;;;;;6308200;22;20039;-75
2022/03/28 09:15:52;;;;;;;53.33;27.60;;;13.70;99.90;;;;;;6306184;22;19999;-74
2022/03/28 09:18:35;;;;;;;49.40;29.00;;;13.90;99.90;;;;;;6308054;22;19995;-75
2022/03/28 09:21:03;;;;;;;46.55;26.73;;;14.00;99.90;;;;;;6280763;22;20441;-75
2022/03/28 09:23:44;;;;;;;49.25;27.30;;;14.10;99.90;;;;;;6308541;22;20026;-74
2022/03/28 09:26:23;;;;;;;48.33;26.83;;;14.30;99.90;;;;;;6306947;22;20056;-75
2022/03/28 09:28:53;;;;;;;45.38;26.27;;;14.50;99.90;;;;;;6308023;22;20003;-75
2022/03/28 09:31:25;;;;;;;43.70;25.20;;;14.50;99.90;;;;;;6307810;22;20011;-74
2022/03/28 09:34:06;;;;;;;42.55;25.50;;;14.60;99.90;;;;;;6308776;22;20003;-75
2022/03/28 09:36:45;;;;;;;41.90;25.38;;;14.80;99.90;;;;;;6308540;22;20359;-74
2022/03/28 09:39:17;;;;;;;48.30;26.90;;;15.10;99.90;;;;;;6308459;22;19999;-75
2022/03/28 09:41:44;;;;;;;;;;;15.20;99.90;;;;;;6309029;22;20052;-72
2022/03/28 09:44:10;;;;;;;42.00;24.83;;;15.30;99.90;;;;;;6307128;22;19978;-75
2022/03/28 09:46:37;;;;;;;43.17;25.05;;;15.60;99.90;;;;;;6307894;22;20372;-74
2022/03/28 09:49:03;;;;;;;46.95;26.35;;;15.70;99.90;;;;;;6308134;22;20045;-75
2022/03/28 09:51:31;;;;;;;40.25;24.83;;;15.90;99.90;;;;;;6308106;22;20006;-75
2022/03/28 09:53:58;;;;;;;40.53;25.48;;;15.90;99.90;;;;;;6306843;22;20038;-75
2022/03/28 09:56:24;;;;;;;43.50;26.17;;;16.00;99.90;;;;;;6307624;22;19995;-75
2022/03/28 09:58:59;;;;;;;51.42;31.05;;;16.10;99.90;;;;;;6281086;22;20014;-75
2022/03/28 10:01:39;;;;;;;40.65;24.25;;;16.20;99.90;;;;;;6308262;22;20007;-74
2022/03/28 10:04:08;;;;;;;45.25;26.13;;;16.30;99.90;;;;;;6306478;22;19999;-75
2022/03/28 10:06:39;;;;;;;38.15;21.88;;;16.40;99.90;;;;;;6306824;22;20003;-75
2022/03/28 10:09:06;;;;;;;42.15;24.20;;;16.60;99.90;;;;;;6306939;22;20328;-75
2022/03/28 10:11:32;;;;;;;43.78;23.80;;;16.70;99.90;;;;;;6307741;22;20367;-75
2022/03/28 10:13:59;;;;;;;38.17;23.10;;;16.80;99.90;;;;;;6306968;22;20090;-75
2022/03/28 10:16:25;;;;;;;41.97;23.35;;;17.00;99.90;;;;;;6280149;22;20003;-74
2022/03/28 10:18:51;;;;;;;44.30;24.70;;;17.00;99.90;;;;;;6308148;22;20056;-75
2022/03/28 10:21:30;;;;;;;40.38;23.35;;;17.20;99.90;;;;;;6278634;22;20097;-75
2022/03/28 10:24:10;;;;;;;38.75;23.05;;;17.20;99.90;;;;;;6308154;22;20141;-75
2022/03/28 10:26:42;;;;;;;42.75;25.48;;;17.20;99.90;;;;;;6306563;22;20074;-74
2022/03/28 10:29:17;;;;;;;43.57;24.93;;;17.30;99.90;;;;;;6307957;22;20763;-75
2022/03/28 10:31:52;;;;;;;43.70;25.40;;;17.50;99.90;;;;;;6307086;22;19999;-75
2022/03/28 10:34:51;;;;;;;40.70;24.50;;;17.60;99.90;;;;;;6308425;22;20328;-75
2022/03/28 10:37:38;;;;;;;47.03;25.45;;;17.70;99.90;;;;;;6305922;22;20046;-75
2022/03/28 10:40:26;;;;;;;40.08;24.95;;;17.80;99.90;;;;;;6308055;22;20010;-75
2022/03/28 10:43:14;;;;;;;40.47;24.85;;;17.90;99.90;;;;;;6306632;22;20094;-74
2022/03/28 10:45:52;;;;;;;38.33;24.17;;;18.00;99.90;;;;;;6307763;22;20463;-75
2022/03/28 10:48:32;;;;;;;41.05;24.30;;;17.90;99.90;;;;;;6305685;22;20074;-74
2022/03/28 10:51:11;;;;;;;40.90;25.13;;;18.10;99.80;;;;;;6279844;22;20428;-75
2022/03/28 10:53:43;;;;;;;39.03;22.75;;;18.10;99.90;;;;;;6305090;22;20328;-75
2022/03/28 10:56:17;;;;;;;41.90;24.25;;;18.20;99.60;;;;;;6307200;22;20000;-75
2022/03/28 10:58:52;;;;;;;44.95;24.90;;;18.30;99.70;;;;;;6305901;22;20010;-75
2022/03/28 11:01:20;;;;;;;40.75;24.58;;;18.40;99.40;;;;;;6307513;22;20003;-75
2022/03/28 11:03:57;;;;;;;39.72;24.50;;;18.60;99.70;;;;;;6305338;22;20022;-75
2022/03/28 11:06:46;;;;;;;41.08;25.95;;;18.70;99.90;;;;;;6307131;22;20022;-75
2022/03/28 11:09:13;;;;;;;42.55;24.77;;;18.80;99.20;;;;;;6306009;22;20313;-75
2022/03/28 11:11:58;;;;;;;38.28;24.48;;;18.80;99.10;;;;;;6306382;22;20014;-74
2022/03/28 11:14:43;;;;;;;39.67;25.48;;;18.80;98.50;;;;;;6306964;22;20081;-73
2022/03/28 11:17:20;;;;;;;44.45;26.98;;;18.80;98.10;;;;;;6276092;22;19995;-74
2022/03/28 11:20:08;;;;;;;44.88;25.33;;;18.80;98.60;;;;;;6306154;22;20074;-74
2022/03/28 11:22:39;;;;;;;46.70;25.83;;;18.90;99.10;;;;;;6304253;22;20021;-74
2022/03/28 11:25:05;;;;;;;42.72;24.65;;;19.10;99.10;;;;;;6305521;22;20375;-74
2022/03/28 11:27:33;;;;;;;43.10;25.52;;;19.20;98.10;;;;;;6306492;22;20006;-74
2022/03/28 11:30:05;;;;;;;44.03;27.02;;;19.00;97.50;;;;;;6305736;22;20003;-74
2022/03/28 11:32:35;;;;;;;42.72;24.52;;;19.10;97.80;;;;;;6306285;22;19999;-74
2022/03/28 11:35:01;;;;;;;39.58;24.02;;;19.20;98.20;;;;;;6279111;22;20324;-74
2022/03/28 11:37:29;;;;;;;43.05;25.15;;;19.20;97.50;;;;;;6277070;22;20043;-73
2022/03/28 11:40:07;;;;;;;40.25;25.70;;;19.20;98.10;;;;;;6306935;22;20019;-73
2022/03/28 11:42:35;;;;;;;39.05;24.27;;;19.40;97.50;;;;;;6277881;22;20003;-74
2022/03/28 11:45:11;;;;;;;41.28;24.20;;;19.30;97.00;;;;;;6278753;22;20007;-74
2022/03/28 11:47:39;;;;;;;39.75;25.58;;;19.30;97.00;;;;;;6305106;22;20007;-74
2022/03/28 11:50:08;;;;;;;38.15;23.73;;;19.40;97.50;;;;;;6306034;22;20464;-73
2022/03/28 11:52:36;;;;;;;43.45;24.65;;;19.60;97.80;;;;;;6304985;22;20467;-74
2022/03/28 11:55:16;;;;;;;38.00;23.40;;;19.70;98.50;;;;;;6278660;22;20026;-73
2022/03/28 12:00:32;;;;;;;38.33;25.00;;;19.80;96.70;;;;;;6306996;22;20010;-74
2022/03/28 12:02:59;;;;;;;37.63;23.27;;;19.80;96.30;;;;;;6306566;22;20045;-73
2022/03/28 12:05:27;;;;;;;44.88;24.38;;;19.70;97.90;;;;;;6304876;22;19999;-74
2022/03/28 12:07:53;;;;;;;37.80;22.10;;;19.80;96.30;;;;;;6306825;22;20007;-74
2022/03/28 12:10:32;;;;;;;38.95;22.98;;;19.90;97.00;;;;;;6305837;22;20416;-74
2022/03/28 12:12:59;;;;;;;37.92;24.08;;;19.80;97.80;;;;;;6307868;22;20049;-73
2022/03/28 12:15:29;;;;;;;39.28;23.85;;;19.90;97.50;;;;;;6275364;22;20013;-74
2022/03/28 12:17:58;;;;;;;41.83;22.80;;;19.80;95.10;;;;;;6306121;22;20018;-73
2022/03/28 12:20:27;;;;;;;36.30;22.85;;;19.70;96.70;;;;;;6306567;22;19995;-74
2022/03/28 12:22:52;;;;;;;38.63;24.52;;;19.80;96.30;;;;;;6305384;22;20010;-74
2022/03/28 12:25:38;;;;;;;42.53;24.85;;;19.90;95.50;;;;;;6306554;22;20484;-74
2022/03/28 12:28:12;;;;;;;41.28;24.15;;;19.90;96.80;;;;;;6306364;22;20072;-74
2022/03/28 12:30:44;;;;;;;36.95;24.48;;;20.00;96.10;;;;;;6306023;22;20068;-74
2022/03/28 12:33:16;;;;;;;39.53;25.90;;;20.00;95.50;;;;;;6305837;22;20000;-74
2022/03/28 12:35:47;;;;;;;41.58;23.63;;;20.20;95.80;;;;;;6304973;22;20325;-74
2022/03/28 12:38:20;;;;;;;36.30;22.65;;;20.30;94.70;;;;;;6306507;22;19996;-74
2022/03/28 12:40:50;;;;;;;39.67;22.83;;;20.20;94.60;;;;;;6305829;22;19996;-74